Shozuimaru — JD3906 — position and weather

sailwx.info

Track history (hours):
 
Tides and Currents Weather Stations Pressure Air Temp Water Temp Dewpoint Dewpoint Depression Visibility Wind Speed Wind Dir Waves Ship Positions

Shozuimaru

Last reported at 2017-Nov-20 00:30 UTC. Time now 2017-Nov-20 02:08 UTC.
Position N 35°32' E 139°48'.

Length 105 m; draft 6.4 m.

Type: Ship. MMSI: 431006887.

Date/timePositionNaut miles runAvg speedWind from/ knotsBaromVisibWave heightAir tempDewpointWater temp
2017-Nov-20 00:30N 35°32' E 139°48'2 4.6
2017-Nov-20 00:00N 35°31' E 139°50'0 0.0
2017-Nov-19 23:28N 35°31' E 139°50'0 0.0
2017-Nov-19 22:58N 35°31' E 139°50'0 0.0
2017-Nov-19 22:25N 35°31' E 139°50'0 0.0
2017-Nov-19 21:58N 35°31' E 139°50'0 0.0
2017-Nov-19 21:25N 35°31' E 139°50'0 0.0
2017-Nov-19 20:58N 35°31' E 139°50'0 0.0
2017-Nov-19 20:28N 35°31' E 139°50'0 0.1
2017-Nov-19 19:58N 35°31' E 139°50'0 0.0
2017-Nov-19 19:28N 35°31' E 139°50'0 0.0
2017-Nov-19 18:58N 35°31' E 139°50'0 0.0
2017-Nov-19 18:28N 35°31' E 139°50'0 0.0
2017-Nov-19 17:58N 35°31' E 139°50'0 0.0
2017-Nov-19 17:28N 35°31' E 139°50'0 0.1
2017-Nov-19 16:58N 35°31' E 139°50'0 0.1
2017-Nov-19 16:25N 35°31' E 139°50'0 0.0
2017-Nov-19 15:58N 35°31' E 139°50'0 0.0
2017-Nov-19 15:28N 35°31' E 139°50'0 0.0
2017-Nov-19 14:58N 35°31' E 139°50'0 0.0
2017-Nov-19 14:28N 35°31' E 139°50'0 0.0
2017-Nov-19 13:58N 35°31' E 139°50'0 0.0
2017-Nov-19 13:28N 35°31' E 139°50'0 0.0
2017-Nov-19 12:58N 35°31' E 139°50'0 0.0
2017-Nov-19 12:28N 35°31' E 139°50'0 0.0
2017-Nov-19 11:55N 35°31' E 139°50'0 0.0
2017-Nov-19 11:28N 35°31' E 139°50'0 0.2
2017-Nov-19 10:58N 35°31' E 139°50'0 0.0
2017-Nov-19 10:28N 35°31' E 139°50'0 0.0
2017-Nov-19 09:58N 35°31' E 139°50'0 0.0
2017-Nov-19 09:28N 35°31' E 139°50'0 0.0
2017-Nov-19 08:58N 35°31' E 139°50'0 0.0
2017-Nov-19 08:28N 35°31' E 139°50'0 0.0
2017-Nov-19 07:58N 35°31' E 139°50'0 0.0
2017-Nov-19 07:28N 35°31' E 139°50'0 0.1
2017-Nov-19 06:58N 35°31' E 139°50'0 0.1
2017-Nov-19 06:28N 35°31' E 139°50'4 7.6
2017-Nov-19 06:00N 35°31' E 139°55'611.3
2017-Nov-19 05:30N 35°30' E 140°01'0 0.0
2017-Nov-18 22:32N 35°30' E 140°01'0 3.9
2017-Nov-18 22:30N 35°30' E 140°01'2 0.1
2017-Nov-18 05:33N 35°32' E 139°59'0 1.0
2017-Nov-18 05:29N 35°32' E 139°59'0 0.0
2017-Nov-17 21:37N 35°32' E 139°59'1 0.1
2017-Nov-17 09:37N 35°31' E 139°60'1 4.1
2017-Nov-17 09:29N 35°31' E 140°00'1 0.1
2017-Nov-17 00:00N 35°30' E 140°01'610.3
2017-Nov-16 23:27N 35°29' E 139°54'613.4
2017-Nov-16 23:00N 35°26' E 139°48'612.3
2017-Nov-16 22:30N 35°20' E 139°44'611.3
2017-Nov-16 22:00N 35°15' E 139°47'612.2
2017-Nov-16 21:30N 35°09' E 139°46'714.6
2017-Nov-16 21:01N 35°03' E 139°42'714.2
2017-Nov-16 20:31N 34°58' E 139°35'  
Track history (hours):
 
Tides and Currents Weather Stations Pressure Air Temp Water Temp Dewpoint Dewpoint Depression Visibility Wind Speed Wind Dir Waves Ship Positions

Shozuimaru

Last reported at 2017-Nov-20 00:30 UTC. Time now 2017-Nov-20 02:08 UTC.
Position N 35°32' E 139°48'.

Length 105 m; draft 6.4 m.

Type: Ship. MMSI: 431006887.

Date/timePositionNaut miles runAvg speedWind from/ knotsBaromVisibWave heightAir tempDewpointWater temp
2017-Nov-20 00:30N 35°32' E 139°48'2 4.6
2017-Nov-20 00:00N 35°31' E 139°50'0 0.0
2017-Nov-19 23:28N 35°31' E 139°50'0 0.0
2017-Nov-19 22:58N 35°31' E 139°50'0 0.0
2017-Nov-19 22:25N 35°31' E 139°50'0 0.0
2017-Nov-19 21:58N 35°31' E 139°50'0 0.0
2017-Nov-19 21:25N 35°31' E 139°50'0 0.0
2017-Nov-19 20:58N 35°31' E 139°50'0 0.0
2017-Nov-19 20:28N 35°31' E 139°50'0 0.1
2017-Nov-19 19:58N 35°31' E 139°50'0 0.0
2017-Nov-19 19:28N 35°31' E 139°50'0 0.0
2017-Nov-19 18:58N 35°31' E 139°50'0 0.0
2017-Nov-19 18:28N 35°31' E 139°50'0 0.0
2017-Nov-19 17:58N 35°31' E 139°50'0 0.0
2017-Nov-19 17:28N 35°31' E 139°50'0 0.1
2017-Nov-19 16:58N 35°31' E 139°50'0 0.1
2017-Nov-19 16:25N 35°31' E 139°50'0 0.0
2017-Nov-19 15:58N 35°31' E 139°50'0 0.0
2017-Nov-19 15:28N 35°31' E 139°50'0 0.0
2017-Nov-19 14:58N 35°31' E 139°50'0 0.0
2017-Nov-19 14:28N 35°31' E 139°50'0 0.0
2017-Nov-19 13:58N 35°31' E 139°50'0 0.0
2017-Nov-19 13:28N 35°31' E 139°50'0 0.0
2017-Nov-19 12:58N 35°31' E 139°50'0 0.0
2017-Nov-19 12:28N 35°31' E 139°50'0 0.0
2017-Nov-19 11:55N 35°31' E 139°50'0 0.0
2017-Nov-19 11:28N 35°31' E 139°50'0 0.2
2017-Nov-19 10:58N 35°31' E 139°50'0 0.0
2017-Nov-19 10:28N 35°31' E 139°50'0 0.0
2017-Nov-19 09:58N 35°31' E 139°50'0 0.0
2017-Nov-19 09:28N 35°31' E 139°50'0 0.0
2017-Nov-19 08:58N 35°31' E 139°50'0 0.0
2017-Nov-19 08:28N 35°31' E 139°50'0 0.0
2017-Nov-19 07:58N 35°31' E 139°50'0 0.0
2017-Nov-19 07:28N 35°31' E 139°50'0 0.1
2017-Nov-19 06:58N 35°31' E 139°50'0 0.1
2017-Nov-19 06:28N 35°31' E 139°50'4 7.6
2017-Nov-19 06:00N 35°31' E 139°55'611.3
2017-Nov-19 05:30N 35°30' E 140°01'0 0.0
2017-Nov-18 22:32N 35°30' E 140°01'0 3.9
2017-Nov-18 22:30N 35°30' E 140°01'2 0.1
2017-Nov-18 05:33N 35°32' E 139°59'0 1.0
2017-Nov-18 05:29N 35°32' E 139°59'0 0.0
2017-Nov-17 21:37N 35°32' E 139°59'1 0.1
2017-Nov-17 09:37N 35°31' E 139°60'1 4.1
2017-Nov-17 09:29N 35°31' E 140°00'1 0.1
2017-Nov-17 00:00N 35°30' E 140°01'610.3
2017-Nov-16 23:27N 35°29' E 139°54'613.4
2017-Nov-16 23:00N 35°26' E 139°48'612.3
2017-Nov-16 22:30N 35°20' E 139°44'611.3
2017-Nov-16 22:00N 35°15' E 139°47'612.2
2017-Nov-16 21:30N 35°09' E 139°46'714.6
2017-Nov-16 21:01N 35°03' E 139°42'714.2
2017-Nov-16 20:31N 34°58' E 139°35'  

Dump ship's entire track history